Time;durP1;ratioP1;P1;durP2;ratioP2;P2;SDS_P1;SDS_P2;PMS_P1;PMS_P2;Temp;Humidity;BMP_temperature;BMP_pressure;BME280_temperature;BME280_humidity;BME280_pressure;Samples;Min_cycle;Max_cycle;Signal;HPM_P1;HPM_P2
2023/05/27 00:00:41;;;;;;;14.93;3.03;;;;;;;-146.25;100.00;52254.66;2096477;28;36190;-65
2023/05/27 00:01:43;;;;;;;17.13;2.92;;;;;;;-146.25;100.00;52254.66;2096745;28;36816;-64
2023/05/27 00:02:45;;;;;;;17.95;3.28;;;;;;;-146.25;100.00;52270.88;2097193;28;33759;-65
2023/05/27 00:03:47;;;;;;;11.98;2.60;;;;;;;-146.25;100.00;52266.81;2098178;28;20040;-65
2023/05/27 00:04:49;;;;;;;19.02;2.95;;;;;;;-146.25;100.00;52262.75;2097257;28;36896;-65
2023/05/27 00:05:51;;;;;;;13.98;2.90;;;;;;;-146.25;100.00;52262.75;2097549;28;32739;-65
2023/05/27 00:06:53;;;;;;;15.85;2.80;;;;;;;-146.25;100.00;52268.84;2096692;28;34263;-65
2023/05/27 00:07:55;;;;;;;13.88;3.28;;;;;;;-146.25;100.00;52234.38;2096586;28;38055;-65
2023/05/27 00:08:57;;;;;;;17.27;3.17;;;;;;;-146.25;100.00;52264.78;2096709;28;28743;-65
2023/05/27 00:09:58;;;;;;;15.85;2.80;;;;;;;-146.25;100.00;52299.25;2087983;28;38268;-65
2023/05/27 00:11:00;;;;;;;16.02;3.42;;;;;;;-146.25;100.00;52236.41;2088384;28;36447;-64
2023/05/27 00:12:03;;;;;;;15.60;2.83;;;;;;;-146.25;100.00;52234.38;2097215;28;33515;-65
2023/05/27 00:13:07;;;;;;;20.83;3.05;;;;;;;-146.25;100.00;52281.00;2089503;28;36898;-65
2023/05/27 00:14:09;;;;;;;12.23;2.97;;;;;;;-146.25;100.00;52266.81;2088942;28;34993;-65
2023/05/27 00:15:11;;;;;;;17.70;3.30;;;;;;;-146.25;100.00;52287.09;2088503;28;38384;-65
2023/05/27 00:16:13;;;;;;;17.98;3.47;;;;;;;-146.25;100.00;52268.84;2088553;28;32842;-64
2023/05/27 00:17:15;;;;;;;13.57;2.53;;;;;;;-146.25;100.00;52266.81;2088844;28;35219;-65
2023/05/27 00:18:17;;;;;;;15.20;3.50;;;;;;;-146.25;100.00;52236.41;2088673;28;36933;-64
2023/05/27 00:19:18;;;;;;;14.07;3.00;;;;;;;-146.25;100.00;52254.66;2088656;28;30200;-65
2023/05/27 00:20:22;;;;;;;17.48;3.42;;;;;;;-146.25;100.00;52254.66;2089218;28;38889;-65
2023/05/27 00:21:24;;;;;;;17.23;3.20;;;;;;;-146.25;100.00;52244.50;2088723;28;33854;-65
2023/05/27 00:22:28;;;;;;;13.05;3.30;;;;;;;-146.25;100.00;52242.50;2088853;28;31255;-65
2023/05/27 00:23:30;;;;;;;14.40;2.88;;;;;;;-146.25;100.00;52270.88;2089288;28;20791;-65
2023/05/27 00:24:35;;;;;;;16.73;3.17;;;;;;;-146.25;100.00;52309.41;2088666;28;36831;-64
2023/05/27 00:25:39;;;;;;;14.73;3.17;;;;;;;-146.25;100.00;52274.94;2088211;28;36396;-64
2023/05/27 00:26:41;;;;;;;15.40;3.38;;;;;;;-146.25;100.00;52283.03;2088936;28;37155;-65
2023/05/27 00:27:42;;;;;;;18.90;3.72;;;;;;;-146.25;100.00;52276.97;2096363;28;29652;-65
2023/05/27 00:28:44;;;;;;;12.40;3.47;;;;;;;-146.25;100.00;52252.63;2096503;28;25332;-65
2023/05/27 00:29:46;;;;;;;11.68;2.80;;;;;;;-146.25;100.00;52283.03;2096960;28;20137;-65
2023/05/27 00:30:49;;;;;;;18.70;3.45;;;;;;;-146.25;100.00;52268.84;2088789;28;20056;-64
2023/05/27 00:31:51;;;;;;;12.75;3.08;;;;;;;-146.25;100.00;52260.72;2088407;28;20094;-65
2023/05/27 00:32:52;;;;;;;18.20;3.83;;;;;;;-146.25;100.00;52260.72;2097151;28;28992;-64
2023/05/27 00:33:54;;;;;;;18.42;3.25;;;;;;;-146.25;100.00;52287.09;2097263;28;28162;-65
2023/05/27 00:34:57;;;;;;;10.25;3.38;;;;;;;-146.25;100.00;52254.66;2088336;28;20057;-64
2023/05/27 00:35:59;;;;;;;20.33;3.38;;;;;;;-146.25;100.00;52291.16;2087991;28;33443;-65
2023/05/27 00:37:01;;;;;;;12.60;3.72;;;;;;;-146.25;100.00;52295.19;2097028;28;20036;-65
2023/05/27 00:38:05;;;;;;;12.02;3.10;;;;;;;-146.25;100.00;52289.13;2097692;28;20056;-65
2023/05/27 00:39:07;;;;;;;14.35;3.72;;;;;;;-146.25;100.00;52226.25;2097614;28;20037;-65
2023/05/27 00:40:11;;;;;;;17.10;3.83;;;;;;;-146.25;100.00;52272.91;2097191;28;32239;-65
2023/05/27 00:41:13;;;;;;;19.35;3.03;;;;;;;-146.25;100.00;52268.84;2096720;28;22224;-65
2023/05/27 00:42:16;;;;;;;16.05;3.13;;;;;;;-146.25;100.00;52283.03;2096517;28;29293;-65
2023/05/27 00:43:18;;;;;;;16.23;3.60;;;;;;;-146.25;100.00;52272.91;2097007;28;33246;-65
2023/05/27 00:44:19;;;;;;;12.57;3.47;;;;;;;-146.25;100.00;52276.97;2088346;28;25099;-65
2023/05/27 00:45:21;;;;;;;12.43;2.67;;;;;;;-146.25;100.00;52276.97;2088396;28;20595;-65
2023/05/27 00:46:23;;;;;;;12.13;2.92;;;;;;;-146.25;100.00;52254.66;2096650;28;20045;-64
2023/05/27 00:47:30;;;;;;;17.75;3.10;;;;;;;-146.25;100.00;52291.16;2088510;28;23668;-65
2023/05/27 00:48:31;;;;;;;11.50;2.88;;;;;;;-146.25;100.00;52293.19;2097129;28;29367;-64
2023/05/27 00:49:33;;;;;;;16.63;3.08;;;;;;;-146.25;100.00;52305.34;2096741;28;34085;-65
2023/05/27 00:50:36;;;;;;;14.35;3.35;;;;;;;-146.25;100.00;52276.97;2096852;28;35387;-65
2023/05/27 00:51:41;;;;;;;15.23;3.15;;;;;;;-146.25;100.00;52270.88;2096811;28;20037;-65
2023/05/27 00:52:47;;;;;;;14.40;3.08;;;;;;;-146.25;100.00;52285.06;2088750;28;20924;-65
2023/05/27 00:53:49;;;;;;;15.43;3.90;;;;;;;-146.25;100.00;52264.78;2089147;28;31042;-65
2023/05/27 00:54:53;;;;;;;14.52;2.78;;;;;;;-146.25;100.00;52281.00;2097443;28;20035;-65
2023/05/27 00:55:58;;;;;;;14.20;3.20;;;;;;;-146.25;100.00;52248.56;2097547;28;20041;-65
2023/05/27 00:57:02;;;;;;;16.35;3.45;;;;;;;-146.25;100.00;52234.38;2096625;28;23003;-65
2023/05/27 00:58:04;;;;;;;17.48;3.20;;;;;;;-146.25;100.00;52289.13;2096351;28;20071;-65
2023/05/27 00:59:06;;;;;;;13.63;2.83;;;;;;;-146.25;100.00;52246.53;2087675;28;36218;-64
2023/05/27 01:00:09;;;;;;;13.95;3.38;;;;;;;-146.25;100.00;52224.25;2088995;28;20046;-64
2023/05/27 01:01:12;;;;;;;15.30;3.75;;;;;;;-146.25;100.00;52262.75;2087404;28;32644;-65
2023/05/27 01:02:14;;;;;;;19.45;3.58;;;;;;;-146.25;100.00;52281.00;2088373;28;26806;-64
2023/05/27 01:03:20;;;;;;;16.10;3.50;;;;;;;-146.25;100.00;52230.31;2097503;28;20767;-65
2023/05/27 01:04:26;;;;;;;15.23;3.20;;;;;;;-146.25;100.00;52252.63;2096865;28;20039;-64
2023/05/27 01:05:29;;;;;;;19.60;4.13;;;;;;;-146.25;100.00;52287.09;2097401;28;20168;-64
2023/05/27 01:07:13;;;;;;;17.20;4.03;;;;;;;-146.25;100.00;52266.81;2097490;28;20952;-65
2023/05/27 01:08:36;;;;;;;19.10;3.47;;;;;;;-146.25;100.00;52260.72;2096979;28;20045;-64
2023/05/27 01:10:14;;;;;;;22.38;4.10;;;;;;;-146.25;100.00;52236.41;2096048;28;28203;-65
2023/05/27 01:11:23;;;;;;;10.48;3.38;;;;;;;-146.25;100.00;52256.69;2096563;28;28513;-65
2023/05/27 01:12:51;;;;;;;14.32;3.20;;;;;;;-146.25;100.00;52276.97;2095999;28;20942;-65
2023/05/27 01:14:00;;;;;;;13.52;3.75;;;;;;;-146.25;100.00;52295.19;2095986;28;20945;-65
2023/05/27 01:15:05;;;;;;;19.35;3.95;;;;;;;-146.25;100.00;52323.59;2079555;28;39154;-65
2023/05/27 01:16:17;;;;;;;16.52;3.92;;;;;;;-146.25;100.00;52285.06;2081966;28;20769;-65
2023/05/27 01:17:19;;;;;;;13.73;3.75;;;;;;;-146.25;100.00;52270.88;2096269;28;29208;-64
2023/05/27 01:18:29;;;;;;;21.20;4.40;;;;;;;-146.25;100.00;52283.03;2096197;28;31863;-64
2023/05/27 01:19:36;;;;;;;11.45;3.08;;;;;;;-146.25;100.00;52285.06;2087905;28;22994;-65
2023/05/27 01:20:41;;;;;;;19.17;4.25;;;;;;;-146.25;100.00;52262.75;2089295;28;20986;-65
2023/05/27 01:21:50;;;;;;;17.38;3.83;;;;;;;-146.25;100.00;52242.50;2096296;28;20079;-63
2023/05/27 01:22:57;;;;;;;16.70;4.60;;;;;;;-146.25;100.00;52242.50;2096124;28;20045;-65
2023/05/27 01:24:03;;;;;;;20.13;4.40;;;;;;;-146.25;100.00;52281.00;2087949;28;21043;-64
2023/05/27 01:25:06;;;;;;;15.07;3.97;;;;;;;-146.25;100.00;52289.13;2089038;28;20054;-65
2023/05/27 01:26:09;;;;;;;15.43;4.00;;;;;;;-146.25;100.00;52285.06;2096232;28;20162;-64
2023/05/27 01:27:15;;;;;;;16.10;3.70;;;;;;;-146.25;100.00;52272.91;2096926;28;20045;-65
2023/05/27 01:28:17;;;;;;;13.85;3.53;;;;;;;-146.25;100.00;52295.19;2097225;28;20048;-65
2023/05/27 01:29:20;;;;;;;15.88;3.38;;;;;;;-146.25;100.00;52309.41;2096993;28;20044;-65
2023/05/27 01:30:22;;;;;;;13.23;3.65;;;;;;;-146.25;100.00;52258.72;2096914;28;20160;-65
2023/05/27 01:31:41;;;;;;;15.88;4.40;;;;;;;-146.25;100.00;52242.50;2096573;28;20167;-64
2023/05/27 01:32:52;;;;;;;17.23;3.83;;;;;;;-146.25;100.00;52264.78;2096578;28;20045;-64
2023/05/27 01:34:02;;;;;;;10.77;3.10;;;;;;;-146.25;100.00;52260.72;2096935;28;20037;-64
2023/05/27 01:35:17;;;;;;;16.90;4.05;;;;;;;-146.25;100.00;52295.19;2096136;28;27744;-64
2023/05/27 01:36:24;;;;;;;16.98;3.53;;;;;;;-146.25;100.00;52232.34;2096866;28;20743;-64
2023/05/27 01:37:33;;;;;;;17.27;3.42;;;;;;;-146.25;100.00;52270.88;2088377;28;20475;-64
2023/05/27 01:38:40;;;;;;;14.57;3.70;;;;;;;-146.25;100.00;52266.81;2089929;28;20038;-65
2023/05/27 01:39:42;;;;;;;16.70;4.43;;;;;;;-146.25;100.00;52270.88;2087794;28;20037;-64
2023/05/27 01:40:49;;;;;;;15.85;3.70;;;;;;;-146.25;100.00;52270.88;2089474;28;20081;-64
2023/05/27 01:41:53;;;;;;;13.88;3.90;;;;;;;-146.25;100.00;52256.69;2096139;28;20128;-64
2023/05/27 01:42:56;;;;;;;14.40;3.97;;;;;;;-146.25;100.00;52266.81;2087672;28;28873;-64
2023/05/27 01:44:00;;;;;;;15.52;3.85;;;;;;;-146.25;100.00;52272.91;2088088;28;20113;-65
2023/05/27 01:45:05;;;;;;;16.40;4.32;;;;;;;-146.25;100.00;52236.41;2095945;28;23855;-64
2023/05/27 01:46:07;;;;;;;13.38;4.10;;;;;;;-146.25;100.00;52283.03;2096287;28;21422;-64
2023/05/27 01:47:10;;;;;;;16.70;4.10;;;;;;;-146.25;100.00;52246.53;2096256;28;20148;-64
2023/05/27 01:48:12;;;;;;;14.25;3.80;;;;;;;-146.25;100.00;52272.91;2096412;28;26410;-64
2023/05/27 01:49:14;;;;;;;16.20;4.20;;;;;;;-146.25;100.00;52248.56;2096204;28;20251;-64
2023/05/27 01:50:16;;;;;;;18.70;4.72;;;;;;;-146.25;100.00;52236.41;2096088;28;30735;-64
2023/05/27 01:51:18;;;;;;;21.05;4.45;;;;;;;-146.25;100.00;52262.75;2095939;28;20041;-64
2023/05/27 01:52:20;;;;;;;16.42;4.43;;;;;;;-146.25;100.00;52311.44;2087923;28;20057;-64
2023/05/27 01:53:22;;;;;;;20.38;4.57;;;;;;;-146.25;100.00;52218.16;2088076;28;20913;-64
2023/05/27 01:54:25;;;;;;;24.13;4.35;;;;;;;-146.25;100.00;52242.50;2088327;28;20046;-64
2023/05/27 01:55:27;;;;;;;16.55;4.28;;;;;;;-146.25;100.00;52264.78;2087941;28;20036;-64
2023/05/27 01:56:29;;;;;;;13.38;3.50;;;;;;;-146.25;100.00;52250.59;2087892;28;20965;-63
2023/05/27 01:57:31;;;;;;;19.77;5.10;;;;;;;-146.25;100.00;52230.31;2088334;28;20855;-64
2023/05/27 01:58:33;;;;;;;26.65;5.22;;;;;;;-146.25;100.00;52254.66;2095864;28;20037;-64
2023/05/27 01:59:35;;;;;;;19.58;4.65;;;;;;;-146.25;100.00;52260.72;2096361;28;20044;-64
2023/05/27 02:00:37;;;;;;;26.35;4.90;;;;;;;-146.25;100.00;52270.88;2099427;28;20034;-64
2023/05/27 02:01:42;;;;;;;19.13;4.95;;;;;;;-146.25;100.00;52270.88;2096273;28;20037;-64
2023/05/27 02:02:44;;;;;;;19.65;4.85;;;;;;;-146.25;100.00;52262.75;2096660;28;20087;-64
2023/05/27 02:03:48;;;;;;;13.70;4.53;;;;;;;-146.25;100.00;52258.72;2104568;28;20166;-64
2023/05/27 02:04:50;;;;;;;19.48;4.55;;;;;;;-146.25;100.00;52244.50;2104905;28;20044;-64
2023/05/27 02:05:52;;;;;;;19.58;4.63;;;;;;;-146.25;100.00;52254.66;2104761;28;20067;-64
2023/05/27 02:06:54;;;;;;;17.38;4.93;;;;;;;-146.25;100.00;52274.94;2096775;28;27160;-64
2023/05/27 02:07:57;;;;;;;15.50;4.30;;;;;;;-146.25;100.00;52242.50;2096331;28;20151;-64
2023/05/27 02:09:00;;;;;;;12.52;4.20;;;;;;;-146.25;100.00;52238.44;2096409;28;20080;-64
2023/05/27 02:10:05;;;;;;;18.23;4.25;;;;;;;-146.25;100.00;52287.09;2096548;28;20056;-64
2023/05/27 02:11:07;;;;;;;15.13;4.40;;;;;;;-146.25;100.00;52258.72;2087924;28;28750;-64
2023/05/27 02:12:09;;;;;;;18.15;4.32;;;;;;;-146.25;100.00;52291.16;2096471;28;20177;-65
2023/05/27 02:13:13;;;;;;;14.95;4.25;;;;;;;-146.25;100.00;52283.03;2096276;28;20269;-64
2023/05/27 02:14:15;;;;;;;18.25;4.47;;;;;;;-146.25;100.00;52297.22;2096443;28;20147;-65
2023/05/27 02:15:17;;;;;;;16.58;3.63;;;;;;;-146.25;100.00;52264.78;2097315;28;20081;-65
2023/05/27 02:16:21;;;;;;;17.70;4.45;;;;;;;-146.25;100.00;52250.59;2104849;28;20041;-65
2023/05/27 02:17:24;;;;;;;14.65;3.83;;;;;;;-146.25;100.00;52272.91;2096205;28;20037;-64
2023/05/27 02:18:26;;;;;;;16.40;3.95;;;;;;;-146.25;100.00;52262.75;2096473;28;20910;-64
2023/05/27 02:19:28;;;;;;;12.65;3.90;;;;;;;-146.25;100.00;52272.91;2104586;28;20157;-64
2023/05/27 02:20:29;;;;;;;15.95;3.72;;;;;;;-146.25;100.00;52246.53;2104391;28;27063;-64
2023/05/27 02:21:33;;;;;;;11.95;3.72;;;;;;;-146.25;100.00;52262.75;2104532;28;20040;-64
2023/05/27 02:22:34;;;;;;;18.17;4.18;;;;;;;-146.25;100.00;52272.91;2104022;28;28105;-65
2023/05/27 02:23:36;;;;;;;15.82;3.90;;;;;;;-146.25;100.00;52242.50;2096909;28;25156;-64
2023/05/27 02:24:38;;;;;;;12.15;3.88;;;;;;;-146.25;100.00;52270.88;2097014;28;20053;-64
2023/05/27 02:25:40;;;;;;;18.50;4.15;;;;;;;-146.25;100.00;52242.50;2096607;28;30296;-64
2023/05/27 02:26:41;;;;;;;17.20;4.13;;;;;;;-146.25;100.00;52262.75;2096801;28;21847;-65
2023/05/27 02:27:48;;;;;;;13.32;3.90;;;;;;;-146.25;100.00;52278.97;2097188;28;20798;-65
2023/05/27 02:28:49;;;;;;;16.52;4.00;;;;;;;-146.25;100.00;52242.50;2096128;28;20694;-64
2023/05/27 02:29:51;;;;;;;16.40;3.47;;;;;;;-146.25;100.00;52272.91;2071496;28;20038;-64
2023/05/27 02:30:54;;;;;;;17.92;4.18;;;;;;;-146.25;100.00;52258.72;2079696;28;20823;-64
2023/05/27 02:31:56;;;;;;;14.52;3.60;;;;;;;-146.25;100.00;52252.63;2079186;28;20180;-64
2023/05/27 02:32:59;;;;;;;19.63;4.30;;;;;;;-146.25;100.00;52266.81;2078975;28;20168;-64
2023/05/27 02:34:03;;;;;;;14.23;3.85;;;;;;;-146.25;100.00;52232.34;2079578;28;20041;-64
2023/05/27 02:35:09;;;;;;;17.60;4.32;;;;;;;-146.25;100.00;52240.47;2087630;28;20823;-64
2023/05/27 02:36:11;;;;;;;20.48;4.43;;;;;;;-146.25;100.00;52246.53;2079542;28;20046;-64
2023/05/27 02:37:13;;;;;;;14.90;3.85;;;;;;;-146.25;100.00;52276.97;2079948;28;20038;-64
2023/05/27 02:38:15;;;;;;;21.67;4.60;;;;;;;-146.25;100.00;52270.88;2079886;28;20168;-64
2023/05/27 02:39:17;;;;;;;20.33;4.00;;;;;;;-146.25;100.00;52254.66;2079876;28;20085;-64
2023/05/27 02:40:28;;;;;;;17.92;3.95;;;;;;;-146.25;100.00;52266.81;2088049;28;20865;-64
2023/05/27 02:41:30;;;;;;;15.93;4.63;;;;;;;-146.25;100.00;52234.38;2087772;28;20088;-64
2023/05/27 02:42:35;;;;;;;15.75;3.63;;;;;;;-146.25;100.00;52252.63;2087808;28;20041;-65
2023/05/27 02:43:36;;;;;;;19.33;4.15;;;;;;;-146.25;100.00;52250.59;2078925;28;26182;-64
2023/05/27 02:44:38;;;;;;;14.10;3.80;;;;;;;-146.25;100.00;52242.50;2079205;28;20139;-64
2023/05/27 02:45:40;;;;;;;23.00;4.90;;;;;;;-146.25;100.00;52285.06;2079524;28;23682;-64
2023/05/27 02:46:42;;;;;;;15.95;4.15;;;;;;;-146.25;100.00;52276.97;2079678;28;20912;-64
2023/05/27 02:47:46;;;;;;;14.63;4.05;;;;;;;-146.25;100.00;52242.50;2079477;28;20858;-64
2023/05/27 02:48:48;;;;;;;16.10;3.92;;;;;;;-146.25;100.00;52248.56;2079992;28;20101;-64
2023/05/27 02:49:50;;;;;;;16.70;4.20;;;;;;;-146.25;100.00;52254.66;2088638;28;20041;-64
2023/05/27 02:50:51;;;;;;;17.52;4.30;;;;;;;-146.25;100.00;52299.25;2087821;28;20850;-64
2023/05/27 02:51:53;;;;;;;18.95;4.10;;;;;;;-146.25;100.00;52230.31;2087594;28;20041;-64
2023/05/27 02:52:55;;;;;;;15.25;4.05;;;;;;;-146.25;100.00;52218.16;2087633;28;20037;-64
2023/05/27 02:53:57;;;;;;;22.00;4.60;;;;;;;-146.25;100.00;52268.84;2087730;28;20152;-64
2023/05/27 02:54:59;;;;;;;14.25;3.20;;;;;;;-146.25;100.00;52228.28;2079671;28;20046;-64
2023/05/27 02:56:03;;;;;;;16.30;4.53;;;;;;;-146.25;100.00;52274.94;2081148;28;20089;-64
2023/05/27 02:57:05;;;;;;;16.80;4.50;;;;;;;-146.25;100.00;52256.69;2089249;28;20041;-64
2023/05/27 02:58:10;;;;;;;14.75;3.88;;;;;;;-146.25;100.00;52246.53;2089466;28;20046;-64
2023/05/27 02:59:14;;;;;;;20.92;4.20;;;;;;;-146.25;100.00;52266.81;2092478;28;20040;-64
2023/05/27 03:00:17;;;;;;;21.70;4.50;;;;;;;-146.25;100.00;52274.94;2097773;28;30082;-64
2023/05/27 03:01:23;;;;;;;14.55;4.20;;;;;;;-146.25;100.00;52250.59;2089471;28;20084;-65
2023/05/27 03:02:25;;;;;;;21.05;5.10;;;;;;;-146.25;100.00;52291.16;2088958;28;25357;-64
2023/05/27 03:03:29;;;;;;;17.15;4.35;;;;;;;-146.25;100.00;52293.19;2098007;28;20056;-64
2023/05/27 03:04:31;;;;;;;21.67;4.80;;;;;;;-146.25;100.00;52262.75;2098309;28;20037;-64
2023/05/27 03:05:34;;;;;;;20.13;4.75;;;;;;;-146.25;100.00;52278.97;2097557;28;23095;-64
2023/05/27 03:06:38;;;;;;;24.08;4.35;;;;;;;-146.25;100.00;52234.38;2097002;28;29772;-64
2023/05/27 03:07:42;;;;;;;18.45;3.83;;;;;;;-146.25;100.00;52270.88;2097399;28;26367;-64
2023/05/27 03:08:47;;;;;;;19.70;4.60;;;;;;;-146.25;100.00;52264.78;2097317;28;20053;-65
2023/05/27 03:09:49;;;;;;;11.65;4.25;;;;;;;-146.25;100.00;52287.09;2097665;28;20048;-64
2023/05/27 03:10:51;;;;;;;14.48;4.40;;;;;;;-146.25;100.00;52268.84;2097798;28;25120;-64
2023/05/27 03:11:53;;;;;;;14.05;3.72;;;;;;;-146.25;100.00;52258.72;2097608;28;28490;-64
2023/05/27 03:12:55;;;;;;;23.00;4.50;;;;;;;-146.25;100.00;52232.34;2096816;28;27381;-64
2023/05/27 03:14:00;;;;;;;13.82;3.78;;;;;;;-146.25;100.00;52270.88;2096840;28;20041;-64
2023/05/27 03:15:02;;;;;;;14.73;3.95;;;;;;;-146.25;100.00;52250.59;2097422;28;24234;-64
2023/05/27 03:16:06;;;;;;;15.05;3.88;;;;;;;-146.25;100.00;52272.91;2089197;28;20045;-64
2023/05/27 03:17:08;;;;;;;15.50;4.28;;;;;;;-146.25;100.00;52240.47;2089312;28;20054;-64
2023/05/27 03:18:10;;;;;;;14.68;4.05;;;;;;;-146.25;100.00;52254.66;2097434;28;25063;-64
2023/05/27 03:19:12;;;;;;;23.15;4.10;;;;;;;-146.25;100.00;52285.06;2097559;28;32107;-64
2023/05/27 03:20:14;;;;;;;15.05;3.78;;;;;;;-146.25;100.00;52256.69;2097823;28;20088;-64
2023/05/27 03:21:15;;;;;;;18.33;4.10;;;;;;;-146.25;100.00;52270.88;2089011;28;20837;-64
2023/05/27 03:22:19;;;;;;;16.10;3.88;;;;;;;-146.25;100.00;52295.19;2088943;28;20037;-64
2023/05/27 03:23:21;;;;;;;12.35;3.55;;;;;;;-146.25;100.00;52236.41;2089127;28;21504;-64
2023/05/27 03:24:24;;;;;;;15.43;4.03;;;;;;;-146.25;100.00;52285.06;2088800;28;20045;-64
2023/05/27 03:25:28;;;;;;;13.52;3.15;;;;;;;-146.25;100.00;52262.75;2089095;28;20041;-64
2023/05/27 03:26:33;;;;;;;13.48;3.60;;;;;;;-146.25;100.00;52274.94;2081513;28;20136;-65
2023/05/27 03:27:40;;;;;;;13.73;3.45;;;;;;;-146.25;100.00;52270.88;2089540;28;20045;-64
2023/05/27 03:28:46;;;;;;;13.30;3.60;;;;;;;-146.25;100.00;52270.88;2088948;28;20038;-64
2023/05/27 03:29:48;;;;;;;13.93;4.53;;;;;;;-146.25;100.00;52238.44;2089461;28;20041;-65
2023/05/27 03:30:50;;;;;;;17.60;4.28;;;;;;;-146.25;100.00;52295.19;2088839;28;24997;-64
2023/05/27 03:32:05;;;;;;;19.02;4.40;;;;;;;-146.25;100.00;52262.75;2090951;28;20079;-64
2023/05/27 03:33:08;;;;;;;16.33;4.35;;;;;;;-146.25;100.00;52240.47;2088633;28;20054;-64
2023/05/27 03:34:12;;;;;;;15.77;4.20;;;;;;;-146.25;100.00;52260.72;2089711;28;20037;-64
2023/05/27 03:35:15;;;;;;;13.15;3.67;;;;;;;-146.25;100.00;52258.72;2088942;28;20049;-65
2023/05/27 03:36:20;;;;;;;12.60;3.78;;;;;;;-146.25;100.00;52256.69;2089417;28;20045;-65
2023/05/27 03:37:24;;;;;;;15.00;4.20;;;;;;;-146.25;100.00;52287.09;2097300;28;20040;-65
2023/05/27 03:38:34;;;;;;;17.38;4.57;;;;;;;-146.25;100.00;52248.56;2088911;28;20168;-65
2023/05/27 03:39:39;;;;;;;18.08;4.97;;;;;;;-146.25;100.00;52246.53;2089173;28;20938;-64
2023/05/27 03:40:41;;;;;;;17.23;4.43;;;;;;;-146.25;100.00;52307.38;2097563;28;20107;-65
2023/05/27 03:41:44;;;;;;;19.65;4.57;;;;;;;-146.25;100.00;52264.78;2096695;28;20041;-64
2023/05/27 03:42:47;;;;;;;14.73;4.50;;;;;;;-146.25;100.00;52268.84;2088971;28;20917;-65
2023/05/27 03:43:56;;;;;;;19.40;4.38;;;;;;;-146.25;100.00;52258.72;2089058;28;20138;-65
2023/05/27 03:44:58;;;;;;;13.02;4.32;;;;;;;-146.25;100.00;52250.59;2097040;28;20052;-65
2023/05/27 03:46:01;;;;;;;13.52;4.22;;;;;;;-146.25;100.00;52270.88;2097529;28;20053;-64
2023/05/27 03:47:04;;;;;;;18.58;4.35;;;;;;;-146.25;100.00;52258.72;2088865;28;20907;-65
2023/05/27 03:48:07;;;;;;;17.08;4.65;;;;;;;-146.25;100.00;52281.00;2081071;28;20839;-65
2023/05/27 03:49:09;;;;;;;22.38;4.65;;;;;;;-146.25;100.00;52276.97;2088965;28;20140;-65
2023/05/27 03:50:11;;;;;;;14.30;4.82;;;;;;;-146.25;100.00;52307.38;2096971;28;20088;-65
2023/05/27 03:51:13;;;;;;;20.30;5.40;;;;;;;-146.25;100.00;52264.78;2096804;28;21657;-65
2023/05/27 03:52:15;;;;;;;23.50;4.57;;;;;;;-146.25;100.00;52258.72;2097330;28;31142;-65
2023/05/27 03:53:17;;;;;;;21.42;4.85;;;;;;;-146.25;100.00;52268.84;2088555;28;20303;-65
2023/05/27 03:54:19;;;;;;;18.60;5.05;;;;;;;-146.25;100.00;52214.09;2088544;28;23399;-65
2023/05/27 03:55:23;;;;;;;14.30;4.50;;;;;;;-146.25;100.00;52276.97;2088605;28;20899;-65
2023/05/27 03:56:27;;;;;;;14.38;4.28;;;;;;;-146.25;100.00;52276.97;2089543;28;20053;-65
2023/05/27 03:57:29;;;;;;;16.48;4.47;;;;;;;-146.25;100.00;52214.09;2088715;28;20938;-65
2023/05/27 03:58:31;;;;;;;10.88;4.07;;;;;;;-146.25;100.00;52281.00;2088706;28;24345;-65
2023/05/27 03:59:33;;;;;;;14.80;4.00;;;;;;;-146.25;100.00;52274.94;2088602;28;20041;-65
2023/05/27 04:00:38;;;;;;;17.60;3.85;;;;;;;-146.25;100.00;52270.88;2089063;28;20048;-65
2023/05/27 04:01:41;;;;;;;18.02;4.25;;;;;;;-146.25;100.00;52252.63;2088876;28;20046;-65
2023/05/27 04:02:43;;;;;;;17.30;5.28;;;;;;;-146.25;100.00;52285.06;2088181;28;30831;-65
2023/05/27 04:03:44;;;;;;;20.80;4.60;;;;;;;-146.25;100.00;52311.44;2088949;28;20042;-64
2023/05/27 04:04:47;;;;;;;18.88;4.47;;;;;;;-146.25;100.00;52230.31;2097929;28;20164;-64
2023/05/27 04:05:48;;;;;;;14.65;4.90;;;;;;;-146.25;100.00;52258.72;2097701;28;25266;-64
2023/05/27 04:06:50;;;;;;;15.88;4.53;;;;;;;-146.25;100.00;52289.13;2096695;28;25461;-65
2023/05/27 04:07:52;;;;;;;16.17;4.32;;;;;;;-146.25;100.00;52262.75;2097110;28;20049;-65
2023/05/27 04:08:54;;;;;;;19.48;5.00;;;;;;;-146.25;100.00;52274.94;2089190;28;20126;-65
2023/05/27 04:09:55;;;;;;;16.52;4.45;;;;;;;-146.25;100.00;52287.09;2088865;28;20030;-65
2023/05/27 04:10:57;;;;;;;14.63;4.10;;;;;;;-146.25;100.00;52289.13;2096586;28;27810;-64
2023/05/27 04:12:00;;;;;;;18.17;4.53;;;;;;;-146.25;100.00;52264.78;2096840;28;20040;-65
2023/05/27 04:13:04;;;;;;;23.08;4.72;;;;;;;-146.25;100.00;52285.06;2096443;28;29133;-65
2023/05/27 04:14:07;;;;;;;18.23;4.32;;;;;;;-146.25;100.00;52270.88;2097871;28;20049;-65
2023/05/27 04:15:11;;;;;;;14.02;4.10;;;;;;;-146.25;100.00;52311.44;2088795;28;20030;-65
2023/05/27 04:16:13;;;;;;;26.05;4.25;;;;;;;-146.25;100.00;52305.34;2088375;28;30581;-65
2023/05/27 04:17:17;;;;;;;11.88;3.10;;;;;;;-146.25;100.00;52303.31;2088667;28;20037;-65
2023/05/27 04:18:19;;;;;;;22.77;3.90;;;;;;;-146.25;100.00;52252.63;2088580;28;21723;-65
2023/05/27 04:19:20;;;;;;;17.23;3.60;;;;;;;-146.25;100.00;52303.31;2096837;28;29311;-65
2023/05/27 04:20:23;;;;;;;16.75;3.47;;;;;;;-146.25;100.00;52303.31;2097672;28;20060;-65
2023/05/27 04:21:31;;;;;;;15.60;3.33;;;;;;;-146.25;100.00;52272.91;2088550;28;22074;-65
2023/05/27 04:22:33;;;;;;;16.30;3.45;;;;;;;-146.25;100.00;52315.47;2088556;28;20118;-65
2023/05/27 04:23:37;;;;;;;16.13;3.75;;;;;;;-146.25;99.84;52283.03;2096944;28;20114;-65
2023/05/27 04:24:40;;;;;;;21.30;3.50;;;;;;;-146.25;100.00;52291.16;2088896;28;20049;-65
2023/05/27 04:25:42;;;;;;;17.05;3.67;;;;;;;-146.25;98.24;52274.94;2088865;28;20034;-65
2023/05/27 04:26:46;;;;;;;12.13;3.35;;;;;;;-146.25;93.10;52244.50;2088633;28;20044;-65
2023/05/27 04:27:52;;;;;;;18.40;3.30;;;;;;;-146.25;91.21;52272.91;2089254;28;20033;-65
2023/05/27 04:28:54;;;;;;;11.55;2.80;;;;;;;-146.25;91.90;52311.44;2096516;28;20041;-65
2023/05/27 04:29:59;;;;;;;11.80;2.85;;;;;;;-146.25;91.58;52303.31;2097882;28;20897;-65
2023/05/27 04:31:01;;;;;;;11.02;2.70;;;;;;;-146.25;91.76;52283.03;2098068;28;20204;-65
2023/05/27 04:32:13;;;;;;;;;;;;;;;-146.25;89.97;52266.81;2097467;28;20041;-65
2023/05/27 04:33:16;;;;;;;16.40;3.33;;;;;;;-146.25;85.65;52266.81;2096984;28;19920;-65
2023/05/27 04:34:21;;;;;;;14.48;3.22;;;;;;;-146.25;81.96;52299.25;2097043;28;20064;-65
2023/05/27 04:35:23;;;;;;;16.25;3.17;;;;;;;-146.25;83.31;52295.19;2088339;28;24717;-64
2023/05/27 04:36:27;;;;;;;13.52;2.85;;;;;;;-146.25;80.37;52240.47;2079784;28;31450;-65
2023/05/27 04:37:36;;;;;;;9.77;2.28;;;;;;;-146.25;82.36;52305.34;2089391;28;20050;-64
2023/05/27 04:38:38;;;;;;;15.05;2.90;;;;;;;-146.25;79.38;52266.81;2088389;28;20038;-63
2023/05/27 04:39:45;;;;;;;12.85;2.92;;;;;;;-146.25;80.30;52266.81;2088807;28;20034;-64
2023/05/27 04:40:56;;;;;;;13.05;2.65;;;;;;;-146.25;77.26;52252.63;2088540;28;20903;-64
2023/05/27 04:42:21;;;;;;;11.00;2.97;;;;;;;-146.25;75.60;52258.72;2092942;28;21035;-64
2023/05/27 04:43:29;;;;;;;15.85;2.92;;;;;;;-146.25;75.79;52281.00;2088584;28;20052;-64
2023/05/27 04:44:32;;;;;;;15.80;3.22;;;;;;;-146.25;73.10;52260.72;2089012;28;20042;-64
2023/05/27 04:45:35;;;;;;;13.50;2.97;;;;;;;-146.25;73.13;52287.09;2096692;28;20037;-64
2023/05/27 04:46:43;;;;;;;13.18;2.92;;;;;;;-146.25;71.05;52270.88;2088191;28;20818;-65
2023/05/27 04:47:45;;;;;;;11.35;2.70;;;;;;;-146.25;71.16;52274.94;2089034;28;20037;-64